Time;durP1;ratioP1;P1;durP2;ratioP2;P2;SDS_P1;SDS_P2;PMS_P1;PMS_P2;Temp;Humidity;BMP_temperature;BMP_pressure;BME280_temperature;BME280_humidity;BME280_pressure;Samples;Min_cycle;Max_cycle;Signal;HPM_P1;HPM_P2
2022/07/11 00:00:59;;;;;;;7.05;1.17;;;17.30;99.90;;;;;;4988516;28;20033;-75
2022/07/11 00:03:24;;;;;;;4.97;1.40;;;17.20;99.90;;;;;;4990303;28;20053;-75
2022/07/11 00:05:50;;;;;;;3.78;1.00;;;17.30;99.90;;;;;;4991060;28;20386;-75
2022/07/11 00:08:15;;;;;;;5.20;0.95;;;17.30;99.90;;;;;;4987974;28;20038;-75
2022/07/11 00:10:41;;;;;;;3.63;1.33;;;17.30;99.90;;;;;;4990616;28;20038;-75
2022/07/11 00:13:06;;;;;;;5.07;1.20;;;17.40;99.90;;;;;;4989991;28;20042;-75
2022/07/11 00:15:32;;;;;;;8.77;1.60;;;17.30;99.90;;;;;;4994092;28;20390;-75
2022/07/11 00:17:57;;;;;;;3.90;1.13;;;17.40;99.90;;;;;;4993105;28;20030;-75
2022/07/11 00:20:23;;;;;;;6.05;1.05;;;17.40;99.90;;;;;;4992437;28;20030;-75
2022/07/11 00:22:48;;;;;;;5.40;1.40;;;17.40;99.90;;;;;;4993265;28;20057;-75
2022/07/11 00:25:14;;;;;;;5.25;1.05;;;17.40;99.90;;;;;;4993781;28;20046;-75
2022/07/11 00:27:39;;;;;;;4.25;0.70;;;17.50;99.90;;;;;;4989817;28;20034;-75
2022/07/11 00:30:05;;;;;;;4.57;0.88;;;17.50;99.90;;;;;;4991506;28;20030;-75
2022/07/11 00:32:31;;;;;;;5.80;1.10;;;17.50;99.90;;;;;;4994814;28;20483;-74
2022/07/11 00:34:56;;;;;;;5.75;0.80;;;17.50;99.90;;;;;;4993458;28;20049;-75
2022/07/11 00:37:22;;;;;;;3.97;0.95;;;17.50;99.90;;;;;;4993883;28;20045;-75
2022/07/11 00:39:47;;;;;;;2.60;0.80;;;17.50;99.90;;;;;;4991666;28;20031;-75
2022/07/11 00:42:17;;;;;;;2.88;0.60;;;17.50;99.90;;;;;;4993382;28;20029;-75
2022/07/11 00:44:43;;;;;;;4.15;0.85;;;17.60;99.90;;;;;;4991945;28;20030;-75
2022/07/11 00:47:08;;;;;;;5.00;0.65;;;17.60;99.90;;;;;;4988039;28;20517;-75
2022/07/11 00:49:34;;;;;;;3.70;0.60;;;17.60;99.90;;;;;;4991919;28;20494;-75
2022/07/11 00:51:59;;;;;;;5.25;0.77;;;17.60;99.90;;;;;;4978255;28;20054;-75
2022/07/11 00:54:27;;;;;;;5.20;0.75;;;17.60;99.90;;;;;;4993393;28;20034;-76
2022/07/11 00:56:54;;;;;;;4.78;0.70;;;17.60;99.90;;;;;;4991619;28;20050;-75
2022/07/11 00:59:20;;;;;;;3.55;0.80;;;17.70;99.90;;;;;;4993639;28;20444;-75
2022/07/11 01:01:46;;;;;;;3.15;0.60;;;17.70;99.90;;;;;;4991750;28;20037;-75
2022/07/11 01:04:11;;;;;;;9.13;1.50;;;17.70;99.90;;;;;;4992072;28;20108;-75
2022/07/11 01:06:37;;;;;;;2.83;0.52;;;17.70;99.90;;;;;;4992300;28;20030;-75
2022/07/11 01:09:03;;;;;;;2.60;0.50;;;17.70;99.90;;;;;;4991814;28;20029;-76
2022/07/11 01:11:28;;;;;;;5.07;0.55;;;17.70;99.90;;;;;;4991079;28;20113;-75
2022/07/11 01:13:54;;;;;;;6.60;1.33;;;17.80;99.90;;;;;;4990886;28;20077;-75
2022/07/11 01:16:22;;;;;;;4.93;0.60;;;17.70;99.90;;;;;;4987249;28;21016;-75
2022/07/11 01:18:52;;;;;;;4.75;0.73;;;17.70;99.90;;;;;;4993102;28;20022;-75
2022/07/11 01:21:38;;;;;;;3.67;0.60;;;17.70;99.90;;;;;;4992377;28;20384;-75
2022/07/11 01:24:05;;;;;;;2.95;0.90;;;17.70;99.90;;;;;;4989735;28;20066;-75
2022/07/11 01:26:32;;;;;;;5.38;1.25;;;17.70;99.90;;;;;;4987583;28;20093;-75
2022/07/11 01:29:11;;;;;;;5.65;1.00;;;17.70;99.90;;;;;;4990155;28;20023;-76
2022/07/11 01:31:42;;;;;;;3.85;0.68;;;17.70;99.90;;;;;;4992089;28;20038;-75
2022/07/11 01:34:08;;;;;;;3.33;0.75;;;17.80;99.90;;;;;;4993462;28;20479;-75
2022/07/11 01:36:33;;;;;;;3.53;0.73;;;17.80;99.90;;;;;;4994319;28;20506;-75
2022/07/11 01:38:59;;;;;;;2.70;0.70;;;17.80;99.90;;;;;;4989343;28;20042;-75
2022/07/11 01:41:25;;;;;;;2.33;0.55;;;17.80;99.90;;;;;;4991954;28;20031;-75
2022/07/11 01:43:51;;;;;;;2.35;0.55;;;17.80;99.90;;;;;;4991407;28;20435;-75
2022/07/11 01:46:17;;;;;;;3.13;0.75;;;17.80;99.90;;;;;;4991065;28;20045;-75
2022/07/11 01:48:44;;;;;;;3.92;0.52;;;17.80;99.90;;;;;;4990410;28;20034;-75
2022/07/11 01:51:09;;;;;;;4.70;0.60;;;17.80;99.90;;;;;;4982841;28;20105;-75
2022/07/11 01:53:35;;;;;;;5.68;0.73;;;17.80;99.90;;;;;;4993204;28;20475;-75
2022/07/11 01:56:01;;;;;;;2.95;0.68;;;17.80;99.90;;;;;;4989487;28;20097;-75
2022/07/11 01:58:27;;;;;;;3.58;0.50;;;17.80;99.90;;;;;;4991870;28;20383;-76
2022/07/11 02:00:52;;;;;;;2.28;0.50;;;17.80;99.90;;;;;;4990911;28;20034;-75
2022/07/11 02:03:18;;;;;;;2.53;0.40;;;17.80;99.90;;;;;;4980123;28;20082;-75
2022/07/11 02:05:43;;;;;;;4.07;0.70;;;17.80;99.90;;;;;;4993770;28;20403;-75
2022/07/11 02:08:12;;;;;;;4.38;0.70;;;17.80;99.90;;;;;;4992556;28;20022;-75
2022/07/11 02:10:48;;;;;;;2.80;0.70;;;17.80;99.90;;;;;;4992175;28;20041;-75
2022/07/11 02:13:15;;;;;;;3.78;0.88;;;17.80;99.90;;;;;;4991095;28;20030;-75
2022/07/11 02:15:42;;;;;;;6.55;1.45;;;17.80;99.90;;;;;;4991024;28;20039;-76
2022/07/11 02:18:10;;;;;;;2.35;0.40;;;17.70;99.90;;;;;;4989585;28;20517;-75
2022/07/11 02:20:36;;;;;;;2.58;0.52;;;17.70;99.90;;;;;;4989856;28;20038;-75
2022/07/11 02:23:03;;;;;;;2.63;0.40;;;17.70;99.90;;;;;;4992572;28;20023;-75
2022/07/11 02:25:28;;;;;;;4.88;0.50;;;17.70;99.90;;;;;;4991943;28;20038;-75
2022/07/11 02:27:54;;;;;;;5.97;0.60;;;17.70;99.90;;;;;;4992019;28;20584;-75
2022/07/11 02:30:20;;;;;;;4.13;0.60;;;17.70;99.90;;;;;;4992019;28;20442;-75
2022/07/11 02:32:45;;;;;;;6.18;0.75;;;17.70;99.90;;;;;;4991163;28;20111;-75
2022/07/11 02:35:11;;;;;;;3.03;0.40;;;17.70;99.90;;;;;;4991133;28;20505;-75
2022/07/11 02:37:37;;;;;;;3.83;0.80;;;17.70;99.90;;;;;;4991915;28;20120;-75
2022/07/11 02:40:03;;;;;;;3.15;0.70;;;17.70;99.90;;;;;;4990967;28;20494;-75
2022/07/11 02:42:28;;;;;;;4.38;0.73;;;17.70;99.90;;;;;;4992688;28;20394;-75
2022/07/11 02:44:54;;;;;;;2.80;0.60;;;17.70;99.90;;;;;;4990388;28;20060;-75
2022/07/11 02:47:19;;;;;;;5.95;1.10;;;17.60;99.90;;;;;;4991444;28;20035;-75
2022/07/11 02:49:47;;;;;;;3.72;1.08;;;17.60;99.90;;;;;;4991544;28;20405;-76
2022/07/11 02:52:13;;;;;;;4.95;1.42;;;17.60;99.90;;;;;;4988743;28;20057;-75
2022/07/11 02:54:39;;;;;;;5.43;1.65;;;17.60;99.90;;;;;;4991842;28;20034;-75
2022/07/11 02:57:04;;;;;;;5.57;1.95;;;17.60;99.90;;;;;;4990775;28;20040;-74
2022/07/11 02:59:30;;;;;;;6.97;1.90;;;17.60;99.90;;;;;;4990692;28;20046;-75
2022/07/11 03:01:55;;;;;;;7.25;2.40;;;17.50;99.90;;;;;;4989049;28;20033;-75
2022/07/11 03:04:21;;;;;;;7.50;2.45;;;17.50;99.90;;;;;;4991228;28;20142;-75
2022/07/11 03:06:47;;;;;;;7.07;2.10;;;17.50;99.90;;;;;;4990907;28;20030;-75
2022/07/11 03:09:13;;;;;;;7.45;1.90;;;17.50;99.90;;;;;;4991089;28;20030;-77
2022/07/11 03:11:38;;;;;;;5.55;1.67;;;17.50;99.90;;;;;;4991747;28;20106;-75
2022/07/11 03:14:04;;;;;;;10.23;2.03;;;17.50;99.90;;;;;;4989920;28;20052;-75
2022/07/11 03:16:30;;;;;;;4.20;1.52;;;17.50;99.90;;;;;;4988868;28;20104;-75
2022/07/11 03:18:57;;;;;;;6.03;1.33;;;17.50;99.90;;;;;;4989052;28;20486;-75
2022/07/11 03:21:23;;;;;;;11.52;1.55;;;17.40;99.90;;;;;;4991852;28;20039;-75
2022/07/11 03:23:49;;;;;;;8.75;1.38;;;17.40;99.90;;;;;;4991857;28;20030;-75
2022/07/11 03:26:15;;;;;;;6.25;1.35;;;17.40;99.90;;;;;;4991412;28;20030;-75
2022/07/11 03:28:41;;;;;;;2.80;1.10;;;17.40;99.90;;;;;;4989188;28;20026;-75
2022/07/11 03:31:06;;;;;;;5.25;0.98;;;17.40;99.90;;;;;;4989757;28;20451;-75
2022/07/11 03:33:32;;;;;;;4.38;0.70;;;17.40;99.90;;;;;;4990193;28;20018;-75
2022/07/11 03:35:57;;;;;;;4.97;0.80;;;17.40;99.90;;;;;;4991329;28;20043;-75
2022/07/11 03:38:23;;;;;;;3.40;0.60;;;17.40;99.90;;;;;;4989327;28;20026;-75
2022/07/11 03:40:49;;;;;;;2.08;0.50;;;17.40;99.90;;;;;;4989489;28;20034;-75
2022/07/11 03:43:15;;;;;;;3.58;0.50;;;17.40;99.90;;;;;;4985341;28;20137;-75
2022/07/11 03:45:41;;;;;;;2.85;0.50;;;17.50;99.90;;;;;;4989868;28;20034;-75
2022/07/11 03:48:07;;;;;;;2.72;0.50;;;17.50;99.90;;;;;;4988691;28;20030;-75
2022/07/11 03:50:33;;;;;;;2.70;0.47;;;17.50;99.90;;;;;;4988495;28;20030;-75
2022/07/11 03:52:59;;;;;;;4.70;0.70;;;17.50;99.90;;;;;;4989291;28;20093;-75
2022/07/11 03:55:24;;;;;;;3.95;0.80;;;17.40;99.90;;;;;;4988406;28;20038;-75
2022/07/11 03:57:50;;;;;;;2.83;0.50;;;17.40;99.90;;;;;;4991737;28;20034;-75
2022/07/11 04:00:16;;;;;;;2.20;0.40;;;17.40;99.90;;;;;;4990549;28;20027;-75
2022/07/11 04:02:42;;;;;;;3.63;0.57;;;17.40;99.90;;;;;;4991197;28;20026;-75
2022/07/11 04:05:08;;;;;;;3.90;0.50;;;17.30;99.90;;;;;;4990340;28;20109;-75
2022/07/11 04:07:33;;;;;;;4.80;0.40;;;17.30;99.90;;;;;;4983959;28;20065;-75
2022/07/11 04:09:59;;;;;;;1.80;0.43;;;17.30;99.90;;;;;;4990428;28;20027;-75
2022/07/11 04:12:25;;;;;;;2.40;0.50;;;17.30;99.90;;;;;;4986254;28;20042;-75
2022/07/11 04:14:51;;;;;;;4.18;0.70;;;17.30;99.90;;;;;;4991261;28;20538;-75
2022/07/11 04:17:16;;;;;;;2.50;0.45;;;17.30;99.90;;;;;;4987600;28;20031;-75
2022/07/11 04:19:45;;;;;;;3.70;0.50;;;17.20;99.90;;;;;;4988107;28;20419;-75
2022/07/11 04:22:11;;;;;;;2.63;0.60;;;17.20;99.90;;;;;;4989182;28;20587;-75
2022/07/11 04:24:37;;;;;;;3.83;0.68;;;17.20;99.90;;;;;;4994764;28;20442;-75
2022/07/11 04:27:03;;;;;;;4.47;0.73;;;17.20;99.90;;;;;;4984412;28;20026;-75
2022/07/11 04:29:29;;;;;;;3.50;0.82;;;17.20;99.90;;;;;;4986954;28;20080;-76
2022/07/11 04:31:54;;;;;;;4.35;0.70;;;17.20;99.90;;;;;;4987555;28;20094;-75
2022/07/11 04:34:20;;;;;;;2.80;0.70;;;17.20;99.90;;;;;;4989721;28;20030;-75
2022/07/11 04:36:46;;;;;;;2.05;0.60;;;17.20;99.90;;;;;;4988951;28;20042;-76
2022/07/11 04:39:11;;;;;;;2.83;0.70;;;17.10;99.90;;;;;;4985800;28;20038;-75
2022/07/11 04:41:37;;;;;;;9.50;1.27;;;17.10;99.90;;;;;;4984738;28;20026;-75
2022/07/11 04:44:03;;;;;;;2.17;0.57;;;17.10;99.90;;;;;;4985352;28;20027;-76
2022/07/11 04:46:29;;;;;;;2.70;0.73;;;17.10;99.90;;;;;;4988926;28;20084;-76
2022/07/11 04:48:55;;;;;;;2.22;0.82;;;17.10;99.90;;;;;;4984301;28;20081;-75
2022/07/11 04:51:21;;;;;;;2.72;0.70;;;17.10;99.90;;;;;;4989844;28;20050;-76
2022/07/11 04:53:46;;;;;;;2.72;0.70;;;17.10;99.90;;;;;;4990672;28;20054;-76
2022/07/11 04:56:12;;;;;;;4.38;0.80;;;17.20;99.90;;;;;;4989871;28;20050;-76
2022/07/11 04:58:38;;;;;;;4.22;1.00;;;17.20;99.90;;;;;;4981466;28;20378;-75
2022/07/11 05:01:03;;;;;;;7.28;1.00;;;17.20;99.90;;;;;;4987354;28;20033;-74
2022/07/11 05:03:29;;;;;;;4.22;0.70;;;17.20;99.90;;;;;;4994836;28;20030;-74
2022/07/11 05:05:55;;;;;;;4.28;0.80;;;17.20;99.90;;;;;;4993707;28;20433;-73
2022/07/11 05:08:21;;;;;;;4.03;0.70;;;17.20;99.90;;;;;;4991754;28;20117;-74
2022/07/11 05:10:47;;;;;;;4.32;0.80;;;17.20;99.90;;;;;;4992357;28;20539;-73
2022/07/11 05:13:13;;;;;;;4.43;1.00;;;17.30;99.90;;;;;;4993134;28;20018;-76
2022/07/11 05:15:39;;;;;;;5.05;1.13;;;17.30;99.90;;;;;;4987062;28;20077;-75
2022/07/11 05:18:05;;;;;;;3.72;0.70;;;17.30;99.90;;;;;;4987696;28;20023;-75
2022/07/11 05:20:31;;;;;;;4.68;1.10;;;17.20;99.90;;;;;;4990031;28;20026;-75
2022/07/11 05:22:57;;;;;;;3.42;0.80;;;17.20;99.90;;;;;;4990069;28;20054;-76
2022/07/11 05:25:23;;;;;;;5.22;1.00;;;17.20;99.90;;;;;;4988157;28;20054;-76
2022/07/11 05:27:49;;;;;;;5.05;1.00;;;17.20;99.90;;;;;;4987582;28;20993;-75
2022/07/11 05:30:14;;;;;;;4.50;0.80;;;17.20;99.90;;;;;;4986492;28;20038;-75
2022/07/11 05:32:40;;;;;;;5.75;0.75;;;17.20;99.90;;;;;;4992570;28;20026;-76
2022/07/11 05:35:06;;;;;;;3.63;0.70;;;17.20;99.90;;;;;;4990347;28;20038;-76
2022/07/11 05:37:32;;;;;;;4.63;0.90;;;17.10;99.90;;;;;;4989110;28;20026;-76
2022/07/11 05:39:57;;;;;;;2.88;1.00;;;17.20;99.90;;;;;;4991874;28;20451;-76
2022/07/11 05:42:23;;;;;;;6.80;0.90;;;17.20;99.90;;;;;;4988302;28;20102;-76
2022/07/11 05:44:51;;;;;;;4.47;0.80;;;17.20;99.90;;;;;;4989431;28;20034;-75
2022/07/11 05:47:17;;;;;;;3.55;0.80;;;17.20;99.90;;;;;;4986358;28;20041;-75
2022/07/11 05:49:43;;;;;;;3.10;1.10;;;17.20;99.90;;;;;;4985455;28;20386;-75
2022/07/11 05:52:08;;;;;;;2.90;0.80;;;17.20;99.90;;;;;;4986597;28;20038;-76
2022/07/11 05:54:34;;;;;;;3.25;0.98;;;17.20;99.90;;;;;;4991965;28;20037;-76
2022/07/11 05:57:03;;;;;;;2.58;0.90;;;17.20;99.90;;;;;;4993952;28;20030;-76
2022/07/11 05:59:29;;;;;;;4.32;1.25;;;17.20;99.90;;;;;;4993160;28;20027;-76
2022/07/11 06:01:55;;;;;;;5.20;1.25;;;17.20;99.90;;;;;;4992444;28;20072;-76
2022/07/11 06:04:20;;;;;;;3.22;1.50;;;17.30;99.90;;;;;;4993360;28;20030;-76
2022/07/11 06:06:46;;;;;;;4.15;1.25;;;17.30;99.90;;;;;;4986110;28;20054;-76
2022/07/11 06:09:12;;;;;;;3.38;1.00;;;17.40;99.90;;;;;;4988382;28;20034;-76
2022/07/11 06:11:38;;;;;;;2.25;0.95;;;17.40;99.90;;;;;;4990714;28;20491;-79
2022/07/11 06:14:05;;;;;;;2.95;1.10;;;17.50;99.90;;;;;;4992487;28;20066;-76
2022/07/11 06:16:31;;;;;;;3.28;1.25;;;17.50;99.90;;;;;;4993459;28;20026;-75
2022/07/11 06:18:57;;;;;;;5.90;1.10;;;17.60;99.90;;;;;;4990236;28;20030;-77
2022/07/11 06:21:24;;;;;;;2.65;1.02;;;17.60;99.90;;;;;;4991633;28;20041;-76
2022/07/11 06:23:50;;;;;;;2.50;1.20;;;17.60;99.90;;;;;;4990379;28;20022;-76
2022/07/11 06:26:15;;;;;;;2.60;1.10;;;17.60;99.90;;;;;;4992403;28;20046;-76
2022/07/11 06:28:41;;;;;;;3.47;1.33;;;17.50;99.90;;;;;;4991496;28;20033;-76
2022/07/11 06:31:07;;;;;;;2.92;1.30;;;17.60;99.90;;;;;;4993099;28;20057;-76
2022/07/11 06:33:34;;;;;;;3.80;1.40;;;17.50;99.90;;;;;;4992424;28;20038;-77
2022/07/11 06:36:01;;;;;;;2.33;1.27;;;17.60;99.90;;;;;;4993129;28;20057;-76
2022/07/11 06:38:26;;;;;;;5.15;1.63;;;17.60;99.90;;;;;;4991846;28;20483;-76
2022/07/11 06:40:53;;;;;;;2.83;0.90;;;17.60;99.90;;;;;;4989143;28;20056;-76
2022/07/11 06:43:19;;;;;;;4.15;1.17;;;17.70;99.90;;;;;;4991907;28;20031;-77
2022/07/11 06:45:44;;;;;;;3.05;0.90;;;17.70;99.90;;;;;;4993136;28;20498;-76
2022/07/11 06:48:10;;;;;;;4.72;1.00;;;17.80;99.90;;;;;;4991605;28;20389;-75
2022/07/11 06:50:36;;;;;;;2.78;0.90;;;18.00;99.90;;;;;;4989544;28;20038;-77
2022/07/11 06:53:02;;;;;;;2.72;1.00;;;18.20;99.90;;;;;;4992234;28;20541;-76
2022/07/11 06:55:28;;;;;;;2.08;1.00;;;18.30;99.90;;;;;;4991853;28;20042;-76
2022/07/11 06:57:56;;;;;;;5.05;0.98;;;18.30;99.90;;;;;;4992272;28;20665;-75
2022/07/11 07:00:22;;;;;;;2.08;0.85;;;18.40;99.90;;;;;;4980878;28;20034;-76
2022/07/11 07:02:48;;;;;;;3.90;0.90;;;18.50;99.90;;;;;;4985148;28;20029;-76
2022/07/11 07:05:13;;;;;;;1.63;0.70;;;18.60;99.90;;;;;;4988753;28;20034;-75
2022/07/11 07:07:39;;;;;;;1.90;0.70;;;18.60;99.90;;;;;;4989489;28;20018;-75
2022/07/11 07:10:05;;;;;;;2.25;0.60;;;18.70;99.90;;;;;;4987718;28;20061;-76
2022/07/11 07:12:31;;;;;;;2.85;0.50;;;18.80;99.90;;;;;;4990096;28;20026;-75
2022/07/11 07:14:57;;;;;;;0.85;0.40;;;18.80;99.90;;;;;;4988604;28;20045;-76
2022/07/11 07:17:22;;;;;;;3.90;0.50;;;18.90;99.90;;;;;;4989126;28;20130;-76
2022/07/11 07:19:48;;;;;;;1.00;0.40;;;19.00;99.90;;;;;;4982379;28;20057;-75
2022/07/11 07:22:16;;;;;;;4.50;0.45;;;19.10;99.90;;;;;;4995604;28;20101;-76
2022/07/11 07:24:45;;;;;;;3.08;0.38;;;19.30;99.90;;;;;;4981427;28;20482;-75
2022/07/11 07:27:11;;;;;;;1.75;0.60;;;19.40;99.90;;;;;;4991900;28;20401;-75
2022/07/11 07:29:36;;;;;;;1.67;0.50;;;19.50;99.90;;;;;;4992424;28;20038;-75
2022/07/11 07:32:02;;;;;;;2.08;0.60;;;19.50;99.90;;;;;;4988639;28;20038;-75
2022/07/11 07:34:28;;;;;;;2.00;0.35;;;19.50;99.90;;;;;;4987475;28;20026;-76
2022/07/11 07:36:54;;;;;;;1.65;0.50;;;19.60;99.90;;;;;;4990056;28;20030;-75
2022/07/11 07:39:19;;;;;;;1.17;0.40;;;19.60;99.90;;;;;;4990735;28;20192;-75
2022/07/11 07:41:45;;;;;;;1.85;0.50;;;19.70;99.90;;;;;;5006896;28;20026;-75
2022/07/11 07:44:10;;;;;;;2.05;0.40;;;19.90;99.90;;;;;;4989778;28;20494;-75
2022/07/11 07:46:36;;;;;;;1.25;0.32;;;20.00;99.90;;;;;;4989891;28;20026;-75
2022/07/11 07:49:02;;;;;;;0.70;0.30;;;20.10;99.90;;;;;;4990116;28;20037;-74
2022/07/11 07:51:29;;;;;;;1.83;0.50;;;20.20;99.90;;;;;;4989581;28;20442;-75
2022/07/11 07:53:54;;;;;;;0.80;0.30;;;20.20;99.90;;;;;;4990297;28;20373;-75
2022/07/11 07:56:20;;;;;;;1.65;0.30;;;20.30;99.90;;;;;;4990292;28;20038;-75
2022/07/11 07:58:46;;;;;;;0.75;0.25;;;20.40;99.90;;;;;;4982463;28;20045;-75
2022/07/11 08:03:56;;;;;;;0.68;0.30;;;20.30;99.90;;;;;;4989271;28;20092;-73
2022/07/11 08:06:22;;;;;;;2.17;0.20;;;20.40;99.90;;;;;;4991201;28;20483;-74
2022/07/11 08:08:49;;;;;;;0.68;0.30;;;20.40;99.90;;;;;;4989501;28;20053;-73
2022/07/11 08:11:14;;;;;;;0.80;0.20;;;20.60;99.90;;;;;;4988801;28;20457;-74
2022/07/11 08:13:40;;;;;;;1.05;0.30;;;20.70;99.90;;;;;;4989531;28;20053;-74
2022/07/11 08:16:08;;;;;;;0.60;0.20;;;20.80;99.90;;;;;;4989295;28;20065;-74
2022/07/11 08:18:35;;;;;;;0.70;0.30;;;20.90;99.90;;;;;;4991719;28;20106;-74
2022/07/11 08:21:01;;;;;;;0.52;0.20;;;21.10;99.90;;;;;;4988124;28;20490;-74
2022/07/11 08:23:27;;;;;;;1.83;0.30;;;21.10;99.90;;;;;;4989364;28;20030;-74
2022/07/11 08:25:52;;;;;;;0.85;0.30;;;21.20;99.90;;;;;;4989362;28;20034;-74
2022/07/11 08:28:18;;;;;;;0.82;0.25;;;21.20;99.90;;;;;;4989605;28;20058;-74
2022/07/11 08:30:44;;;;;;;0.55;0.30;;;21.10;99.90;;;;;;4991520;28;20026;-74
2022/07/11 08:33:10;;;;;;;0.80;0.30;;;21.00;99.90;;;;;;4989145;28;20462;-74
2022/07/11 08:35:36;;;;;;;0.22;0.20;;;20.80;99.90;;;;;;4989447;28;20038;-74
2022/07/11 08:38:01;;;;;;;0.70;0.20;;;20.80;99.90;;;;;;4994572;28;20061;-74
2022/07/11 08:40:27;;;;;;;1.67;0.30;;;20.80;99.90;;;;;;4994358;28;20128;-73
2022/07/11 08:42:55;;;;;;;0.40;0.20;;;20.90;99.90;;;;;;4993854;28;20375;-74
2022/07/11 08:45:28;;;;;;;2.17;0.20;;;21.00;99.90;;;;;;4992038;28;20117;-74
2022/07/11 08:47:54;;;;;;;0.73;0.20;;;21.00;99.90;;;;;;4987264;28;20046;-74
2022/07/11 08:50:22;;;;;;;0.95;0.20;;;21.00;99.90;;;;;;4990886;28;20026;-74
2022/07/11 08:52:48;;;;;;;0.55;0.20;;;20.90;99.90;;;;;;4985086;28;20116;-74
2022/07/11 08:55:13;;;;;;;1.25;0.20;;;20.80;99.90;;;;;;4992058;28;20450;-74
2022/07/11 08:57:39;;;;;;;1.40;0.10;;;20.80;99.90;;;;;;4992618;28;20033;-74
2022/07/11 09:00:08;;;;;;;2.75;0.15;;;20.80;99.90;;;;;;4994650;28;20059;-74
2022/07/11 09:02:34;;;;;;;0.30;0.10;;;20.80;99.90;;;;;;4990850;28;20026;-74
2022/07/11 09:05:03;;;;;;;0.93;0.20;;;20.70;99.90;;;;;;5003070;28;20026;-74
2022/07/11 09:07:28;;;;;;;0.38;0.10;;;20.80;99.90;;;;;;4993506;28;20018;-73
2022/07/11 09:09:54;;;;;;;0.43;0.17;;;20.70;99.90;;;;;;4993814;28;20022;-74
2022/07/11 09:12:20;;;;;;;1.23;0.10;;;20.70;99.90;;;;;;4992015;28;20034;-74
2022/07/11 09:14:47;;;;;;;0.65;0.10;;;20.80;99.90;;;;;;4994017;28;20034;-74
2022/07/11 09:17:13;;;;;;;0.20;0.10;;;20.90;99.90;;;;;;4994314;28;20029;-74
2022/07/11 09:19:39;;;;;;;0.75;0.10;;;21.00;99.90;;;;;;4991786;28;20045;-74
2022/07/11 09:27:50;;;;;;;1.38;0.20;;;21.30;99.90;;;;;;4989500;28;20065;-73
2022/07/11 09:30:27;;;;;;;0.70;0.20;;;21.20;99.90;;;;;;4993290;28;20097;-74
2022/07/11 09:32:56;;;;;;;1.38;0.10;;;21.10;99.90;;;;;;4992890;28;20114;-73
2022/07/11 09:35:23;;;;;;;0.60;0.20;;;21.10;99.90;;;;;;4993055;28;20120;-74
2022/07/11 09:37:49;;;;;;;0.60;0.30;;;21.00;99.90;;;;;;4992892;28;20069;-74
2022/07/11 09:40:17;;;;;;;0.52;0.35;;;21.00;99.90;;;;;;4993393;28;20031;-74
2022/07/11 09:42:47;;;;;;;1.23;0.20;;;21.00;99.90;;;;;;4992814;28;20514;-74
2022/07/11 09:45:13;;;;;;;1.05;0.20;;;21.00;99.90;;;;;;4993436;28;20110;-74
2022/07/11 09:47:47;;;;;;;0.57;0.20;;;21.00;99.90;;;;;;4993258;28;20111;-73
2022/07/11 09:50:16;;;;;;;1.00;0.20;;;20.80;99.90;;;;;;4991777;28;20057;-74
2022/07/11 09:52:43;;;;;;;0.82;0.30;;;20.80;99.90;;;;;;4991792;28;20454;-73
2022/07/11 09:55:09;;;;;;;2.38;0.50;;;20.80;99.90;;;;;;4993934;28;20034;-73
2022/07/11 09:57:37;;;;;;;2.05;0.30;;;20.80;99.90;;;;;;4992639;28;20057;-73
2022/07/11 10:00:11;;;;;;;3.05;0.20;;;20.80;99.90;;;;;;4989495;28;20581;-73
2022/07/11 10:02:37;;;;;;;0.52;0.30;;;21.00;99.90;;;;;;4985881;28;20038;-74
2022/07/11 10:05:04;;;;;;;2.25;0.30;;;21.10;99.90;;;;;;4991573;28;20023;-74
2022/07/11 10:07:30;;;;;;;1.08;0.30;;;21.20;99.90;;;;;;4988250;28;20041;-74
2022/07/11 10:09:58;;;;;;;0.50;0.20;;;21.20;99.90;;;;;;4986694;28;20026;-74
2022/07/11 10:12:24;;;;;;;0.50;0.20;;;21.40;99.90;;;;;;4991989;28;21064;-75
2022/07/11 10:14:52;;;;;;;0.50;0.20;;;21.60;99.90;;;;;;4986299;28;20414;-73
2022/07/11 10:17:36;;;;;;;0.93;0.28;;;21.60;99.90;;;;;;4992168;28;20034;-74
2022/07/11 10:20:10;;;;;;;0.98;0.30;;;21.70;99.90;;;;;;4992925;28;20026;-74
2022/07/11 10:22:48;;;;;;;1.50;0.22;;;21.80;99.90;;;;;;4993491;28;20053;-73
2022/07/11 10:25:24;;;;;;;0.60;0.20;;;21.80;99.90;;;;;;4992497;28;20030;-74
2022/07/11 10:28:11;;;;;;;0.60;0.30;;;21.90;99.90;;;;;;4992412;28;20053;-76
2022/07/11 10:30:43;;;;;;;0.57;0.30;;;22.00;99.90;;;;;;4979346;28;20037;-73
2022/07/11 10:33:09;;;;;;;1.00;0.30;;;22.00;99.90;;;;;;4988913;28;20544;-74
2022/07/11 10:35:35;;;;;;;1.42;0.20;;;22.00;99.90;;;;;;4986359;28;20039;-74
2022/07/11 10:38:05;;;;;;;1.02;0.20;;;22.00;99.90;;;;;;4992418;28;20030;-75
2022/07/11 10:40:50;;;;;;;1.38;0.20;;;22.10;99.90;;;;;;4990522;28;20042;-74
2022/07/11 10:43:22;;;;;;;1.23;0.20;;;22.10;99.90;;;;;;4992950;28;20057;-74
2022/07/11 10:45:58;;;;;;;0.32;0.20;;;22.20;99.90;;;;;;4993338;28;20026;-74
2022/07/11 10:48:25;;;;;;;0.47;0.20;;;22.20;99.90;;;;;;4991302;28;20105;-73
2022/07/11 10:51:15;;;;;;;0.68;0.20;;;22.20;99.90;;;;;;4992438;28;20064;-74
2022/07/11 10:53:47;;;;;;;0.60;0.20;;;22.10;99.90;;;;;;4993163;28;20045;-73
2022/07/11 10:56:41;;;;;;;0.45;0.20;;;22.10;99.90;;;;;;4990679;28;20513;-75
2022/07/11 10:59:17;;;;;;;2.20;0.15;;;22.10;99.90;;;;;;4992759;28;20447;-74
2022/07/11 11:02:12;;;;;;;0.63;0.10;;;22.20;99.90;;;;;;4993063;28;20026;-74
2022/07/11 11:05:00;;;;;;;0.40;0.15;;;22.10;99.90;;;;;;4990484;28;20037;-74
2022/07/11 11:07:44;;;;;;;0.52;0.20;;;22.10;99.90;;;;;;4987952;28;20387;-74
2022/07/11 11:10:21;;;;;;;0.35;0.10;;;22.20;99.90;;;;;;4992544;28;20033;-74
2022/07/11 11:13:22;;;;;;;0.50;0.20;;;22.20;99.90;;;;;;4991640;28;20038;-74
2022/07/11 11:15:50;;;;;;;1.08;0.30;;;22.40;99.90;;;;;;4984497;28;20116;-74
2022/07/11 11:18:24;;;;;;;1.65;0.13;;;22.50;99.90;;;;;;4991918;28;20042;-74
2022/07/11 11:21:02;;;;;;;0.60;0.20;;;22.70;99.90;;;;;;4992815;28;20026;-74
2022/07/11 11:23:33;;;;;;;1.98;0.20;;;23.00;99.90;;;;;;4991594;28;20026;-74
2022/07/11 11:26:16;;;;;;;0.90;0.20;;;23.30;99.90;;;;;;4989569;28;20076;-74
2022/07/11 11:28:59;;;;;;;0.38;0.10;;;23.40;99.90;;;;;;4992195;28;20030;-74
2022/07/11 11:31:31;;;;;;;1.48;0.10;;;23.50;99.90;;;;;;4986836;28;20018;-74
2022/07/11 11:33:58;;;;;;;0.30;0.10;;;23.60;99.90;;;;;;4990019;28;20422;-74
2022/07/11 11:36:25;;;;;;;0.45;0.10;;;23.60;99.80;;;;;;4991221;28;20277;-74
2022/07/11 11:38:52;;;;;;;0.60;0.10;;;23.70;99.70;;;;;;4992035;28;20022;-74
2022/07/11 11:41:29;;;;;;;0.50;0.10;;;23.60;99.50;;;;;;4991945;28;20038;-74
2022/07/11 11:43:56;;;;;;;0.65;0.10;;;23.60;99.50;;;;;;4990785;28;20023;-74
2022/07/11 11:46:30;;;;;;;0.30;0.10;;;23.60;99.60;;;;;;4991557;28;20022;-74
2022/07/11 11:49:01;;;;;;;4.05;0.15;;;23.70;99.40;;;;;;4992309;28;20391;-74
2022/07/11 11:51:28;;;;;;;2.83;0.20;;;24.00;99.10;;;;;;4991886;28;20418;-74
2022/07/11 11:53:56;;;;;;;0.20;0.00;;;24.10;98.70;;;;;;4991317;28;20491;-74
2022/07/11 11:56:28;;;;;;;0.77;0.20;;;24.20;98.50;;;;;;4991334;28;20145;-74
2022/07/11 11:58:57;;;;;;;16.58;0.73;;;24.20;98.40;;;;;;4989288;28;20030;-74
2022/07/11 12:01:27;;;;;;;0.30;0.00;;;24.30;98.20;;;;;;4991148;28;20473;-74
2022/07/11 12:03:55;;;;;;;1.80;0.10;;;24.30;98.20;;;;;;4989623;28;20451;-74
2022/07/11 12:06:25;;;;;;;1.95;0.20;;;24.30;97.90;;;;;;4988727;28;20775;-74
2022/07/11 12:08:51;;;;;;;0.70;0.13;;;24.30;97.60;;;;;;4990182;28;20411;-74
2022/07/11 12:11:16;;;;;;;4.68;0.10;;;24.40;97.50;;;;;;4990418;28;20080;-74
2022/07/11 12:13:42;;;;;;;4.50;0.20;;;24.40;97.40;;;;;;4990500;28;20026;-74
2022/07/11 12:19:03;;;;;;;0.50;0.20;;;24.40;97.20;;;;;;4991678;28;20065;-73
2022/07/11 12:21:30;;;;;;;1.38;0.20;;;24.30;97.40;;;;;;4972881;28;20034;-74
2022/07/11 12:24:00;;;;;;;2.88;0.15;;;24.30;97.40;;;;;;4989756;28;20058;-74
2022/07/11 12:26:29;;;;;;;1.45;0.20;;;24.40;97.20;;;;;;4990990;28;20538;-73
2022/07/11 12:29:07;;;;;;;0.60;0.10;;;24.70;97.10;;;;;;4991979;28;20068;-74
2022/07/11 12:31:52;;;;;;;1.35;0.30;;;25.00;96.50;;;;;;4984910;28;20022;-73
2022/07/11 12:34:22;;;;;;;0.47;0.10;;;25.00;96.40;;;;;;4989855;28;20038;-73
2022/07/11 12:36:48;;;;;;;1.75;0.10;;;25.20;95.90;;;;;;4991196;28;20034;-73
2022/07/11 12:39:29;;;;;;;1.38;0.20;;;25.30;95.70;;;;;;4991025;28;20023;-74
2022/07/11 12:41:56;;;;;;;1.65;0.10;;;25.60;95.30;;;;;;4989308;28;20038;-74
2022/07/11 12:47:08;;;;;;;6.32;0.60;;;25.60;94.60;;;;;;4985713;28;20049;-74
2022/07/11 12:49:33;;;;;;;39.85;20.52;;;25.20;94.70;;;;;;4986517;28;20023;-74
2022/07/11 12:52:02;;;;;;;7.80;4.68;;;25.00;94.90;;;;;;4982024;28;20054;-74
2022/07/11 12:54:33;;;;;;;2.72;1.70;;;24.90;95.00;;;;;;4988770;28;20030;-75
2022/07/11 12:57:03;;;;;;;1.98;0.80;;;24.80;95.10;;;;;;4991549;28;20034;-75
2022/07/11 12:59:31;;;;;;;3.83;1.98;;;24.70;95.20;;;;;;4991419;28;20035;-74
2022/07/11 13:01:59;;;;;;;9.48;4.65;;;24.50;95.40;;;;;;4990041;28;20165;-74